sensor_id;sensor_type;location;lat;lon;timestamp;P1;durP1;ratioP1;P2;durP2;ratioP2
77495;SDS011;66600;48.378;9.948;2023-04-25T00:00:28;5.53;;;3.65;;
77495;SDS011;66600;48.378;9.948;2023-04-25T00:02:54;5.85;;;3.55;;
77495;SDS011;66600;48.378;9.948;2023-04-25T00:05:21;7.88;;;3.78;;
77495;SDS011;66600;48.378;9.948;2023-04-25T00:07:48;4.80;;;3.55;;
77495;SDS011;66600;48.378;9.948;2023-04-25T00:10:13;6.88;;;3.85;;
77495;SDS011;66600;48.378;9.948;2023-04-25T00:12:39;5.65;;;3.97;;
77495;SDS011;66600;48.378;9.948;2023-04-25T00:15:05;6.10;;;3.80;;
77495;SDS011;66600;48.378;9.948;2023-04-25T00:17:31;6.00;;;3.80;;
77495;SDS011;66600;48.378;9.948;2023-04-25T00:19:56;6.45;;;3.80;;
77495;SDS011;66600;48.378;9.948;2023-04-25T00:22:23;6.50;;;3.92;;
77495;SDS011;66600;48.378;9.948;2023-04-25T00:24:48;7.03;;;4.03;;
77495;SDS011;66600;48.378;9.948;2023-04-25T00:27:14;6.82;;;3.80;;
77495;SDS011;66600;48.378;9.948;2023-04-25T00:29:39;5.82;;;3.53;;
77495;SDS011;66600;48.378;9.948;2023-04-25T00:32:04;5.95;;;3.72;;
77495;SDS011;66600;48.378;9.948;2023-04-25T00:34:30;5.78;;;3.65;;
77495;SDS011;66600;48.378;9.948;2023-04-25T00:36:55;5.55;;;3.83;;
77495;SDS011;66600;48.378;9.948;2023-04-25T00:39:21;7.22;;;4.07;;
77495;SDS011;66600;48.378;9.948;2023-04-25T00:41:47;6.05;;;4.10;;
77495;SDS011;66600;48.378;9.948;2023-04-25T00:44:13;6.07;;;4.07;;
77495;SDS011;66600;48.378;9.948;2023-04-25T00:46:41;7.38;;;4.07;;
77495;SDS011;66600;48.378;9.948;2023-04-25T00:49:07;8.88;;;4.15;;
77495;SDS011;66600;48.378;9.948;2023-04-25T00:51:33;6.88;;;4.22;;
77495;SDS011;66600;48.378;9.948;2023-04-25T00:53:59;7.38;;;4.53;;
77495;SDS011;66600;48.378;9.948;2023-04-25T00:56:25;7.60;;;4.00;;
77495;SDS011;66600;48.378;9.948;2023-04-25T00:58:52;8.38;;;4.45;;
77495;SDS011;66600;48.378;9.948;2023-04-25T01:01:19;7.63;;;4.13;;
77495;SDS011;66600;48.378;9.948;2023-04-25T01:03:44;6.10;;;3.65;;
77495;SDS011;66600;48.378;9.948;2023-04-25T01:06:11;8.77;;;4.03;;
77495;SDS011;66600;48.378;9.948;2023-04-25T01:08:37;6.88;;;3.72;;
77495;SDS011;66600;48.378;9.948;2023-04-25T01:11:03;5.50;;;3.78;;
77495;SDS011;66600;48.378;9.948;2023-04-25T01:13:29;6.35;;;3.70;;
77495;SDS011;66600;48.378;9.948;2023-04-25T01:15:56;7.20;;;3.80;;
77495;SDS011;66600;48.378;9.948;2023-04-25T01:18:22;4.88;;;3.35;;
77495;SDS011;66600;48.378;9.948;2023-04-25T01:20:47;5.35;;;3.33;;
77495;SDS011;66600;48.378;9.948;2023-04-25T01:23:16;5.85;;;3.30;;
77495;SDS011;66600;48.378;9.948;2023-04-25T01:25:42;6.90;;;3.55;;
77495;SDS011;66600;48.378;9.948;2023-04-25T01:28:07;7.30;;;3.65;;
77495;SDS011;66600;48.378;9.948;2023-04-25T01:30:33;8.98;;;4.20;;
77495;SDS011;66600;48.378;9.948;2023-04-25T01:32:59;7.00;;;4.43;;
77495;SDS011;66600;48.378;9.948;2023-04-25T01:35:25;8.70;;;4.50;;
77495;SDS011;66600;48.378;9.948;2023-04-25T01:37:51;7.90;;;4.60;;
77495;SDS011;66600;48.378;9.948;2023-04-25T01:40:17;7.57;;;4.45;;
77495;SDS011;66600;48.378;9.948;2023-04-25T01:42:43;6.90;;;4.43;;
77495;SDS011;66600;48.378;9.948;2023-04-25T01:45:10;8.07;;;4.30;;
77495;SDS011;66600;48.378;9.948;2023-04-25T01:47:36;6.70;;;4.47;;
77495;SDS011;66600;48.378;9.948;2023-04-25T01:50:04;7.53;;;4.53;;
77495;SDS011;66600;48.378;9.948;2023-04-25T01:52:31;7.00;;;4.32;;
77495;SDS011;66600;48.378;9.948;2023-04-25T01:54:57;10.85;;;4.63;;
77495;SDS011;66600;48.378;9.948;2023-04-25T01:57:22;6.72;;;4.43;;
77495;SDS011;66600;48.378;9.948;2023-04-25T01:59:48;7.10;;;4.50;;
77495;SDS011;66600;48.378;9.948;2023-04-25T02:02:14;7.47;;;4.20;;
77495;SDS011;66600;48.378;9.948;2023-04-25T02:04:39;8.35;;;4.40;;
77495;SDS011;66600;48.378;9.948;2023-04-25T02:07:05;6.43;;;4.20;;
77495;SDS011;66600;48.378;9.948;2023-04-25T02:09:30;5.32;;;3.72;;
77495;SDS011;66600;48.378;9.948;2023-04-25T02:11:55;6.45;;;4.10;;
77495;SDS011;66600;48.378;9.948;2023-04-25T02:14:21;9.02;;;4.20;;
77495;SDS011;66600;48.378;9.948;2023-04-25T02:16:46;6.72;;;4.15;;
77495;SDS011;66600;48.378;9.948;2023-04-25T02:19:12;5.75;;;4.28;;
77495;SDS011;66600;48.378;9.948;2023-04-25T02:21:37;7.18;;;3.85;;
77495;SDS011;66600;48.378;9.948;2023-04-25T02:24:03;6.60;;;4.45;;
77495;SDS011;66600;48.378;9.948;2023-04-25T02:26:29;7.85;;;4.40;;
77495;SDS011;66600;48.378;9.948;2023-04-25T02:28:56;6.88;;;4.03;;
77495;SDS011;66600;48.378;9.948;2023-04-25T02:31:22;7.55;;;4.40;;
77495;SDS011;66600;48.378;9.948;2023-04-25T02:33:47;8.75;;;5.13;;
77495;SDS011;66600;48.378;9.948;2023-04-25T02:36:13;8.00;;;4.15;;
77495;SDS011;66600;48.378;9.948;2023-04-25T02:38:38;6.30;;;4.45;;
77495;SDS011;66600;48.378;9.948;2023-04-25T02:41:04;9.30;;;4.60;;
77495;SDS011;66600;48.378;9.948;2023-04-25T02:43:30;6.63;;;4.28;;
77495;SDS011;66600;48.378;9.948;2023-04-25T02:45:55;8.75;;;4.20;;
77495;SDS011;66600;48.378;9.948;2023-04-25T02:48:20;8.40;;;4.95;;
77495;SDS011;66600;48.378;9.948;2023-04-25T02:50:46;6.95;;;4.70;;
77495;SDS011;66600;48.378;9.948;2023-04-25T02:53:11;7.63;;;4.50;;
77495;SDS011;66600;48.378;9.948;2023-04-25T02:55:36;8.00;;;4.70;;
77495;SDS011;66600;48.378;9.948;2023-04-25T02:58:02;8.70;;;4.75;;
77495;SDS011;66600;48.378;9.948;2023-04-25T03:00:27;7.60;;;4.68;;
77495;SDS011;66600;48.378;9.948;2023-04-25T03:02:53;6.18;;;4.30;;
77495;SDS011;66600;48.378;9.948;2023-04-25T03:05:18;6.72;;;4.15;;
77495;SDS011;66600;48.378;9.948;2023-04-25T03:07:44;9.77;;;4.82;;
77495;SDS011;66600;48.378;9.948;2023-04-25T03:10:10;8.48;;;4.60;;
77495;SDS011;66600;48.378;9.948;2023-04-25T03:12:36;8.45;;;4.68;;
77495;SDS011;66600;48.378;9.948;2023-04-25T03:15:02;16.55;;;5.95;;
77495;SDS011;66600;48.378;9.948;2023-04-25T03:17:28;7.32;;;4.68;;
77495;SDS011;66600;48.378;9.948;2023-04-25T03:19:53;6.60;;;4.40;;
77495;SDS011;66600;48.378;9.948;2023-04-25T03:22:20;7.57;;;4.40;;
77495;SDS011;66600;48.378;9.948;2023-04-25T03:24:45;5.80;;;4.03;;
77495;SDS011;66600;48.378;9.948;2023-04-25T03:27:10;8.77;;;4.95;;
77495;SDS011;66600;48.378;9.948;2023-04-25T03:29:36;7.95;;;4.53;;
77495;SDS011;66600;48.378;9.948;2023-04-25T03:32:01;9.00;;;5.03;;
77495;SDS011;66600;48.378;9.948;2023-04-25T03:34:27;6.85;;;4.43;;
77495;SDS011;66600;48.378;9.948;2023-04-25T03:36:52;8.38;;;4.38;;
77495;SDS011;66600;48.378;9.948;2023-04-25T03:39:18;7.70;;;4.68;;
77495;SDS011;66600;48.378;9.948;2023-04-25T03:41:43;10.90;;;5.25;;
77495;SDS011;66600;48.378;9.948;2023-04-25T03:44:08;9.23;;;5.13;;
77495;SDS011;66600;48.378;9.948;2023-04-25T03:46:34;9.27;;;5.10;;
77495;SDS011;66600;48.378;9.948;2023-04-25T03:48:59;8.90;;;5.03;;
77495;SDS011;66600;48.378;9.948;2023-04-25T03:51:24;7.72;;;4.78;;
77495;SDS011;66600;48.378;9.948;2023-04-25T03:53:51;8.80;;;4.47;;
77495;SDS011;66600;48.378;9.948;2023-04-25T03:56:17;7.50;;;4.32;;
77495;SDS011;66600;48.378;9.948;2023-04-25T03:58:42;9.70;;;4.40;;
77495;SDS011;66600;48.378;9.948;2023-04-25T04:01:07;7.93;;;5.10;;
77495;SDS011;66600;48.378;9.948;2023-04-25T04:03:33;8.48;;;4.65;;
77495;SDS011;66600;48.378;9.948;2023-04-25T04:06:00;9.25;;;4.50;;
77495;SDS011;66600;48.378;9.948;2023-04-25T04:08:26;7.93;;;4.60;;
77495;SDS011;66600;48.378;9.948;2023-04-25T04:10:51;9.35;;;4.85;;
77495;SDS011;66600;48.378;9.948;2023-04-25T04:13:17;8.10;;;4.72;;
77495;SDS011;66600;48.378;9.948;2023-04-25T04:15:42;6.45;;;4.60;;
77495;SDS011;66600;48.378;9.948;2023-04-25T04:18:07;6.53;;;4.40;;
77495;SDS011;66600;48.378;9.948;2023-04-25T04:20:32;9.07;;;5.30;;
77495;SDS011;66600;48.378;9.948;2023-04-25T04:22:58;6.10;;;4.32;;
77495;SDS011;66600;48.378;9.948;2023-04-25T04:25:23;7.93;;;5.00;;
77495;SDS011;66600;48.378;9.948;2023-04-25T04:27:49;8.10;;;5.05;;
77495;SDS011;66600;48.378;9.948;2023-04-25T04:30:19;9.73;;;4.60;;
77495;SDS011;66600;48.378;9.948;2023-04-25T04:32:45;7.70;;;4.95;;
77495;SDS011;66600;48.378;9.948;2023-04-25T04:35:10;7.78;;;4.20;;
77495;SDS011;66600;48.378;9.948;2023-04-25T04:37:36;7.70;;;4.68;;
77495;SDS011;66600;48.378;9.948;2023-04-25T04:40:01;9.43;;;4.78;;
77495;SDS011;66600;48.378;9.948;2023-04-25T04:42:30;8.23;;;4.70;;
77495;SDS011;66600;48.378;9.948;2023-04-25T04:44:55;6.75;;;4.57;;
77495;SDS011;66600;48.378;9.948;2023-04-25T04:47:20;9.38;;;5.45;;
77495;SDS011;66600;48.378;9.948;2023-04-25T04:49:45;7.63;;;4.70;;
77495;SDS011;66600;48.378;9.948;2023-04-25T04:52:11;7.43;;;4.47;;
77495;SDS011;66600;48.378;9.948;2023-04-25T04:54:36;8.32;;;4.57;;
77495;SDS011;66600;48.378;9.948;2023-04-25T04:57:02;6.82;;;4.40;;
77495;SDS011;66600;48.378;9.948;2023-04-25T04:59:27;8.20;;;4.00;;
77495;SDS011;66600;48.378;9.948;2023-04-25T05:01:52;6.07;;;3.83;;
77495;SDS011;66600;48.378;9.948;2023-04-25T05:04:18;6.50;;;3.80;;
77495;SDS011;66600;48.378;9.948;2023-04-25T05:06:43;7.82;;;3.83;;
77495;SDS011;66600;48.378;9.948;2023-04-25T05:09:09;6.75;;;4.25;;
77495;SDS011;66600;48.378;9.948;2023-04-25T05:11:34;5.85;;;3.70;;
77495;SDS011;66600;48.378;9.948;2023-04-25T05:14:00;7.72;;;4.20;;
77495;SDS011;66600;48.378;9.948;2023-04-25T05:16:25;7.72;;;3.80;;
77495;SDS011;66600;48.378;9.948;2023-04-25T05:18:50;5.78;;;3.83;;
77495;SDS011;66600;48.378;9.948;2023-04-25T05:21:16;7.00;;;4.13;;
77495;SDS011;66600;48.378;9.948;2023-04-25T05:23:41;6.20;;;3.60;;
77495;SDS011;66600;48.378;9.948;2023-04-25T05:26:07;5.53;;;3.78;;
77495;SDS011;66600;48.378;9.948;2023-04-25T05:28:38;6.40;;;3.83;;
77495;SDS011;66600;48.378;9.948;2023-04-25T05:31:04;8.30;;;4.00;;
77495;SDS011;66600;48.378;9.948;2023-04-25T05:33:30;6.97;;;4.20;;
77495;SDS011;66600;48.378;9.948;2023-04-25T05:35:55;7.38;;;5.10;;
77495;SDS011;66600;48.378;9.948;2023-04-25T05:38:21;6.65;;;3.70;;
77495;SDS011;66600;48.378;9.948;2023-04-25T05:40:46;7.28;;;3.78;;
77495;SDS011;66600;48.378;9.948;2023-04-25T05:43:11;7.85;;;4.50;;
77495;SDS011;66600;48.378;9.948;2023-04-25T05:45:37;5.65;;;4.10;;
77495;SDS011;66600;48.378;9.948;2023-04-25T05:48:02;7.95;;;3.95;;
77495;SDS011;66600;48.378;9.948;2023-04-25T05:50:28;5.65;;;3.53;;
77495;SDS011;66600;48.378;9.948;2023-04-25T05:52:53;7.30;;;3.83;;
77495;SDS011;66600;48.378;9.948;2023-04-25T05:55:18;8.43;;;4.03;;
77495;SDS011;66600;48.378;9.948;2023-04-25T05:57:44;6.93;;;3.75;;
77495;SDS011;66600;48.378;9.948;2023-04-25T06:00:11;7.00;;;3.42;;
77495;SDS011;66600;48.378;9.948;2023-04-25T06:02:37;7.70;;;3.70;;
77495;SDS011;66600;48.378;9.948;2023-04-25T06:05:02;6.25;;;3.47;;
77495;SDS011;66600;48.378;9.948;2023-04-25T06:07:28;8.00;;;3.40;;
77495;SDS011;66600;48.378;9.948;2023-04-25T06:09:55;8.32;;;3.92;;
77495;SDS011;66600;48.378;9.948;2023-04-25T06:12:20;5.13;;;3.60;;
77495;SDS011;66600;48.378;9.948;2023-04-25T06:14:45;5.32;;;3.00;;
77495;SDS011;66600;48.378;9.948;2023-04-25T06:17:10;5.93;;;3.08;;
77495;SDS011;66600;48.378;9.948;2023-04-25T06:19:36;5.70;;;3.42;;
77495;SDS011;66600;48.378;9.948;2023-04-25T06:22:01;5.65;;;3.53;;
77495;SDS011;66600;48.378;9.948;2023-04-25T06:24:27;5.55;;;2.92;;
77495;SDS011;66600;48.378;9.948;2023-04-25T06:26:52;5.55;;;3.35;;
77495;SDS011;66600;48.378;9.948;2023-04-25T06:29:18;5.35;;;2.95;;
77495;SDS011;66600;48.378;9.948;2023-04-25T06:31:43;5.40;;;3.28;;
77495;SDS011;66600;48.378;9.948;2023-04-25T06:34:09;6.38;;;3.22;;
77495;SDS011;66600;48.378;9.948;2023-04-25T06:36:34;6.25;;;3.38;;
77495;SDS011;66600;48.378;9.948;2023-04-25T06:38:59;4.75;;;3.22;;
77495;SDS011;66600;48.378;9.948;2023-04-25T06:41:25;5.55;;;2.67;;
77495;SDS011;66600;48.378;9.948;2023-04-25T06:43:50;4.47;;;2.88;;
77495;SDS011;66600;48.378;9.948;2023-04-25T06:46:16;6.68;;;2.85;;
77495;SDS011;66600;48.378;9.948;2023-04-25T06:48:41;5.53;;;3.35;;
77495;SDS011;66600;48.378;9.948;2023-04-25T06:51:07;5.32;;;2.90;;
77495;SDS011;66600;48.378;9.948;2023-04-25T06:53:32;4.13;;;3.03;;
77495;SDS011;66600;48.378;9.948;2023-04-25T06:55:57;5.82;;;3.08;;
77495;SDS011;66600;48.378;9.948;2023-04-25T06:58:22;12.52;;;3.17;;
77495;SDS011;66600;48.378;9.948;2023-04-25T07:00:48;4.18;;;2.80;;
77495;SDS011;66600;48.378;9.948;2023-04-25T07:03:13;5.57;;;2.80;;
77495;SDS011;66600;48.378;9.948;2023-04-25T07:05:39;6.68;;;3.10;;
77495;SDS011;66600;48.378;9.948;2023-04-25T07:08:05;4.18;;;2.40;;
77495;SDS011;66600;48.378;9.948;2023-04-25T07:10:30;4.72;;;2.70;;
77495;SDS011;66600;48.378;9.948;2023-04-25T07:12:56;4.75;;;2.67;;
77495;SDS011;66600;48.378;9.948;2023-04-25T07:15:21;5.50;;;2.78;;
77495;SDS011;66600;48.378;9.948;2023-04-25T07:17:47;6.47;;;2.83;;
77495;SDS011;66600;48.378;9.948;2023-04-25T07:20:12;4.05;;;2.85;;
77495;SDS011;66600;48.378;9.948;2023-04-25T07:22:38;5.03;;;3.03;;
77495;SDS011;66600;48.378;9.948;2023-04-25T07:25:03;5.80;;;2.80;;
77495;SDS011;66600;48.378;9.948;2023-04-25T07:27:29;5.63;;;2.67;;
77495;SDS011;66600;48.378;9.948;2023-04-25T07:29:55;5.35;;;2.85;;
77495;SDS011;66600;48.378;9.948;2023-04-25T07:32:20;4.75;;;3.00;;
77495;SDS011;66600;48.378;9.948;2023-04-25T07:34:46;5.47;;;3.13;;
77495;SDS011;66600;48.378;9.948;2023-04-25T07:37:11;6.68;;;3.85;;
77495;SDS011;66600;48.378;9.948;2023-04-25T07:39:36;7.65;;;3.17;;
77495;SDS011;66600;48.378;9.948;2023-04-25T07:42:02;4.70;;;2.85;;
77495;SDS011;66600;48.378;9.948;2023-04-25T07:44:28;7.07;;;2.90;;
77495;SDS011;66600;48.378;9.948;2023-04-25T07:46:55;6.53;;;2.90;;
77495;SDS011;66600;48.378;9.948;2023-04-25T07:49:21;5.75;;;2.70;;
77495;SDS011;66600;48.378;9.948;2023-04-25T07:51:46;6.18;;;3.08;;
77495;SDS011;66600;48.378;9.948;2023-04-25T07:54:15;6.32;;;2.80;;
77495;SDS011;66600;48.378;9.948;2023-04-25T07:56:40;6.13;;;3.20;;
77495;SDS011;66600;48.378;9.948;2023-04-25T07:59:06;7.70;;;3.58;;
77495;SDS011;66600;48.378;9.948;2023-04-25T08:01:31;13.25;;;3.53;;
77495;SDS011;66600;48.378;9.948;2023-04-25T08:03:57;6.03;;;3.42;;
77495;SDS011;66600;48.378;9.948;2023-04-25T08:06:22;6.05;;;3.47;;
77495;SDS011;66600;48.378;9.948;2023-04-25T08:08:47;4.75;;;3.40;;
77495;SDS011;66600;48.378;9.948;2023-04-25T08:11:13;6.30;;;3.50;;
77495;SDS011;66600;48.378;9.948;2023-04-25T08:13:38;6.88;;;3.30;;
77495;SDS011;66600;48.378;9.948;2023-04-25T08:16:03;6.40;;;2.97;;
77495;SDS011;66600;48.378;9.948;2023-04-25T08:18:29;6.45;;;3.05;;
77495;SDS011;66600;48.378;9.948;2023-04-25T08:20:55;4.90;;;3.10;;
77495;SDS011;66600;48.378;9.948;2023-04-25T08:23:21;4.20;;;2.83;;
77495;SDS011;66600;48.378;9.948;2023-04-25T08:25:46;3.75;;;2.60;;
77495;SDS011;66600;48.378;9.948;2023-04-25T08:28:12;5.28;;;2.83;;
77495;SDS011;66600;48.378;9.948;2023-04-25T08:30:38;4.88;;;2.83;;
77495;SDS011;66600;48.378;9.948;2023-04-25T08:33:03;5.47;;;2.97;;
77495;SDS011;66600;48.378;9.948;2023-04-25T08:35:29;6.20;;;2.90;;
77495;SDS011;66600;48.378;9.948;2023-04-25T08:37:55;4.55;;;2.50;;
77495;SDS011;66600;48.378;9.948;2023-04-25T08:40:21;5.20;;;2.75;;
77495;SDS011;66600;48.378;9.948;2023-04-25T08:42:52;5.60;;;3.20;;
77495;SDS011;66600;48.378;9.948;2023-04-25T08:45:28;5.13;;;3.22;;
77495;SDS011;66600;48.378;9.948;2023-04-25T08:47:57;4.07;;;2.75;;
77495;SDS011;66600;48.378;9.948;2023-04-25T08:50:23;5.75;;;2.67;;
77495;SDS011;66600;48.378;9.948;2023-04-25T08:52:55;6.22;;;2.90;;
77495;SDS011;66600;48.378;9.948;2023-04-25T08:55:43;3.55;;;2.33;;
77495;SDS011;66600;48.378;9.948;2023-04-25T08:58:10;5.05;;;2.60;;
77495;SDS011;66600;48.378;9.948;2023-04-25T09:00:36;4.95;;;2.80;;
77495;SDS011;66600;48.378;9.948;2023-04-25T09:03:02;7.22;;;3.25;;
77495;SDS011;66600;48.378;9.948;2023-04-25T09:05:28;4.75;;;2.80;;
77495;SDS011;66600;48.378;9.948;2023-04-25T09:07:54;4.45;;;3.05;;
77495;SDS011;66600;48.378;9.948;2023-04-25T09:10:22;6.03;;;3.10;;
77495;SDS011;66600;48.378;9.948;2023-04-25T09:13:07;4.97;;;3.35;;
77495;SDS011;66600;48.378;9.948;2023-04-25T09:20:55;3.20;;;2.38;;
77495;SDS011;66600;48.378;9.948;2023-04-25T09:23:31;4.78;;;2.38;;
77495;SDS011;66600;48.378;9.948;2023-04-25T09:26:15;5.05;;;2.40;;
77495;SDS011;66600;48.378;9.948;2023-04-25T09:28:42;6.32;;;2.58;;
77495;SDS011;66600;48.378;9.948;2023-04-25T09:31:09;5.82;;;2.67;;
77495;SDS011;66600;48.378;9.948;2023-04-25T09:33:36;6.00;;;2.67;;
77495;SDS011;66600;48.378;9.948;2023-04-25T09:36:07;4.63;;;2.55;;
77495;SDS011;66600;48.378;9.948;2023-04-25T09:38:43;4.25;;;2.35;;
77495;SDS011;66600;48.378;9.948;2023-04-25T09:41:10;5.57;;;2.70;;
77495;SDS011;66600;48.378;9.948;2023-04-25T09:43:36;5.30;;;3.00;;
77495;SDS011;66600;48.378;9.948;2023-04-25T09:46:02;4.57;;;2.30;;
77495;SDS011;66600;48.378;9.948;2023-04-25T09:48:28;4.85;;;2.50;;
77495;SDS011;66600;48.378;9.948;2023-04-25T09:51:06;5.40;;;2.25;;
77495;SDS011;66600;48.378;9.948;2023-04-25T09:53:33;4.65;;;2.30;;
77495;SDS011;66600;48.378;9.948;2023-04-25T09:56:02;4.57;;;2.70;;
77495;SDS011;66600;48.378;9.948;2023-04-25T09:58:30;5.13;;;2.92;;
77495;SDS011;66600;48.378;9.948;2023-04-25T10:00:58;7.75;;;3.67;;
77495;SDS011;66600;48.378;9.948;2023-04-25T10:03:32;7.70;;;3.50;;
77495;SDS011;66600;48.378;9.948;2023-04-25T10:06:03;5.65;;;3.75;;
77495;SDS011;66600;48.378;9.948;2023-04-25T10:08:37;9.75;;;3.83;;
77495;SDS011;66600;48.378;9.948;2023-04-25T10:13:44;8.60;;;3.97;;
77495;SDS011;66600;48.378;9.948;2023-04-25T10:16:12;7.65;;;3.83;;
77495;SDS011;66600;48.378;9.948;2023-04-25T10:18:38;7.32;;;3.75;;
77495;SDS011;66600;48.378;9.948;2023-04-25T10:21:04;5.13;;;2.92;;
77495;SDS011;66600;48.378;9.948;2023-04-25T10:23:31;3.10;;;1.92;;
77495;SDS011;66600;48.378;9.948;2023-04-25T10:25:57;5.05;;;2.72;;
77495;SDS011;66600;48.378;9.948;2023-04-25T10:28:23;5.68;;;2.65;;
77495;SDS011;66600;48.378;9.948;2023-04-25T10:31:06;3.33;;;2.10;;
77495;SDS011;66600;48.378;9.948;2023-04-25T10:36:08;3.95;;;2.00;;
77495;SDS011;66600;48.378;9.948;2023-04-25T10:38:43;3.25;;;1.90;;
77495;SDS011;66600;48.378;9.948;2023-04-25T10:41:12;3.70;;;1.75;;
77495;SDS011;66600;48.378;9.948;2023-04-25T10:48:57;4.15;;;2.13;;
77495;SDS011;66600;48.378;9.948;2023-04-25T10:51:42;3.85;;;1.98;;
77495;SDS011;66600;48.378;9.948;2023-04-25T10:54:08;5.10;;;2.15;;
77495;SDS011;66600;48.378;9.948;2023-04-25T10:56:37;3.28;;;1.77;;
77495;SDS011;66600;48.378;9.948;2023-04-25T10:59:10;2.80;;;1.85;;
77495;SDS011;66600;48.378;9.948;2023-04-25T11:01:38;2.45;;;1.35;;
77495;SDS011;66600;48.378;9.948;2023-04-25T11:04:24;2.25;;;1.45;;
77495;SDS011;66600;48.378;9.948;2023-04-25T11:09:38;3.58;;;2.28;;
77495;SDS011;66600;48.378;9.948;2023-04-25T11:12:06;4.32;;;2.30;;
77495;SDS011;66600;48.378;9.948;2023-04-25T11:14:33;3.30;;;1.95;;
77495;SDS011;66600;48.378;9.948;2023-04-25T11:16:58;2.95;;;1.80;;
77495;SDS011;66600;48.378;9.948;2023-04-25T11:19:25;2.88;;;1.85;;
77495;SDS011;66600;48.378;9.948;2023-04-25T11:21:54;7.85;;;4.07;;
77495;SDS011;66600;48.378;9.948;2023-04-25T11:24:27;3.55;;;2.08;;
77495;SDS011;66600;48.378;9.948;2023-04-25T11:26:52;3.38;;;1.90;;
77495;SDS011;66600;48.378;9.948;2023-04-25T11:29:18;3.28;;;2.00;;
77495;SDS011;66600;48.378;9.948;2023-04-25T11:31:46;3.90;;;1.80;;
77495;SDS011;66600;48.378;9.948;2023-04-25T11:34:11;4.00;;;2.10;;
77495;SDS011;66600;48.378;9.948;2023-04-25T11:36:42;4.25;;;2.85;;
77495;SDS011;66600;48.378;9.948;2023-04-25T11:39:07;5.07;;;2.85;;
77495;SDS011;66600;48.378;9.948;2023-04-25T11:41:32;4.07;;;2.75;;
77495;SDS011;66600;48.378;9.948;2023-04-25T11:43:58;4.40;;;2.80;;
77495;SDS011;66600;48.378;9.948;2023-04-25T11:46:23;4.32;;;2.60;;
77495;SDS011;66600;48.378;9.948;2023-04-25T11:48:48;5.40;;;2.80;;
77495;SDS011;66600;48.378;9.948;2023-04-25T11:51:15;4.28;;;2.70;;
77495;SDS011;66600;48.378;9.948;2023-04-25T11:53:41;2.17;;;1.50;;
77495;SDS011;66600;48.378;9.948;2023-04-25T11:56:09;2.10;;;1.50;;
77495;SDS011;66600;48.378;9.948;2023-04-25T12:01:34;5.13;;;1.65;;
77495;SDS011;66600;48.378;9.948;2023-04-25T12:04:13;2.00;;;1.50;;
77495;SDS011;66600;48.378;9.948;2023-04-25T12:06:43;4.10;;;2.10;;
77495;SDS011;66600;48.378;9.948;2023-04-25T12:09:12;3.17;;;1.83;;
77495;SDS011;66600;48.378;9.948;2023-04-25T12:11:45;3.03;;;1.77;;
77495;SDS011;66600;48.378;9.948;2023-04-25T12:14:12;3.08;;;1.80;;
77495;SDS011;66600;48.378;9.948;2023-04-25T12:16:48;2.50;;;1.63;;
77495;SDS011;66600;48.378;9.948;2023-04-25T12:19:16;2.47;;;1.30;;
77495;SDS011;66600;48.378;9.948;2023-04-25T12:21:42;1.65;;;1.17;;
77495;SDS011;66600;48.378;9.948;2023-04-25T12:24:12;2.15;;;1.33;;
77495;SDS011;66600;48.378;9.948;2023-04-25T12:26:58;2.10;;;1.35;;
77495;SDS011;66600;48.378;9.948;2023-04-25T12:29:28;2.70;;;1.63;;
77495;SDS011;66600;48.378;9.948;2023-04-25T12:31:58;1.85;;;1.50;;
77495;SDS011;66600;48.378;9.948;2023-04-25T12:34:24;2.45;;;1.45;;
77495;SDS011;66600;48.378;9.948;2023-04-25T12:36:51;2.08;;;1.60;;
77495;SDS011;66600;48.378;9.948;2023-04-25T12:39:19;3.20;;;1.70;;
77495;SDS011;66600;48.378;9.948;2023-04-25T12:41:46;2.53;;;1.60;;
77495;SDS011;66600;48.378;9.948;2023-04-25T12:44:12;3.13;;;1.20;;
77495;SDS011;66600;48.378;9.948;2023-04-25T12:46:38;2.35;;;1.30;;
77495;SDS011;66600;48.378;9.948;2023-04-25T12:49:04;1.30;;;0.90;;
77495;SDS011;66600;48.378;9.948;2023-04-25T12:51:29;1.58;;;1.02;;
77495;SDS011;66600;48.378;9.948;2023-04-25T12:53:57;1.38;;;0.82;;
77495;SDS011;66600;48.378;9.948;2023-04-25T12:56:23;0.93;;;0.75;;
77495;SDS011;66600;48.378;9.948;2023-04-25T12:58:48;0.70;;;0.70;;
77495;SDS011;66600;48.378;9.948;2023-04-25T13:01:14;1.05;;;0.80;;
77495;SDS011;66600;48.378;9.948;2023-04-25T13:03:39;0.77;;;0.68;;
77495;SDS011;66600;48.378;9.948;2023-04-25T13:06:05;1.02;;;0.50;;
77495;SDS011;66600;48.378;9.948;2023-04-25T13:08:31;1.58;;;0.60;;
77495;SDS011;66600;48.378;9.948;2023-04-25T13:10:56;0.88;;;0.52;;
77495;SDS011;66600;48.378;9.948;2023-04-25T13:13:21;0.52;;;0.50;;
77495;SDS011;66600;48.378;9.948;2023-04-25T13:15:47;0.60;;;0.60;;
77495;SDS011;66600;48.378;9.948;2023-04-25T13:18:12;0.85;;;0.60;;
77495;SDS011;66600;48.378;9.948;2023-04-25T13:20:38;2.05;;;1.00;;
77495;SDS011;66600;48.378;9.948;2023-04-25T13:23:03;0.82;;;0.60;;
77495;SDS011;66600;48.378;9.948;2023-04-25T13:25:28;0.90;;;0.80;;
77495;SDS011;66600;48.378;9.948;2023-04-25T13:27:53;0.68;;;0.63;;
77495;SDS011;66600;48.378;9.948;2023-04-25T13:30:19;1.15;;;0.75;;
77495;SDS011;66600;48.378;9.948;2023-04-25T13:32:44;1.00;;;0.80;;
77495;SDS011;66600;48.378;9.948;2023-04-25T13:35:10;0.88;;;0.70;;
77495;SDS011;66600;48.378;9.948;2023-04-25T13:37:37;1.50;;;0.77;;
77495;SDS011;66600;48.378;9.948;2023-04-25T13:40:04;0.80;;;0.80;;
77495;SDS011;66600;48.378;9.948;2023-04-25T13:42:31;0.90;;;0.70;;
77495;SDS011;66600;48.378;9.948;2023-04-25T13:45:00;0.65;;;0.60;;
77495;SDS011;66600;48.378;9.948;2023-04-25T13:47:26;0.57;;;0.57;;
77495;SDS011;66600;48.378;9.948;2023-04-25T13:49:52;0.68;;;0.60;;
77495;SDS011;66600;48.378;9.948;2023-04-25T13:52:18;0.50;;;0.50;;
77495;SDS011;66600;48.378;9.948;2023-04-25T13:54:43;0.93;;;0.90;;
77495;SDS011;66600;48.378;9.948;2023-04-25T13:57:08;1.10;;;1.00;;
77495;SDS011;66600;48.378;9.948;2023-04-25T13:59:35;1.60;;;0.93;;
77495;SDS011;66600;48.378;9.948;2023-04-25T14:02:01;1.33;;;1.00;;
77495;SDS011;66600;48.378;9.948;2023-04-25T14:04:27;1.40;;;0.90;;
77495;SDS011;66600;48.378;9.948;2023-04-25T14:06:52;2.15;;;1.00;;
77495;SDS011;66600;48.378;9.948;2023-04-25T14:09:18;1.52;;;1.08;;
77495;SDS011;66600;48.378;9.948;2023-04-25T14:11:50;1.90;;;1.27;;
77495;SDS011;66600;48.378;9.948;2023-04-25T14:14:19;2.70;;;1.40;;
77495;SDS011;66600;48.378;9.948;2023-04-25T14:16:46;1.38;;;1.00;;
77495;SDS011;66600;48.378;9.948;2023-04-25T14:19:13;1.48;;;1.10;;
77495;SDS011;66600;48.378;9.948;2023-04-25T14:21:45;2.05;;;1.10;;
77495;SDS011;66600;48.378;9.948;2023-04-25T14:24:11;1.27;;;1.10;;
77495;SDS011;66600;48.378;9.948;2023-04-25T14:26:36;1.67;;;1.20;;
77495;SDS011;66600;48.378;9.948;2023-04-25T14:29:02;1.10;;;1.00;;
77495;SDS011;66600;48.378;9.948;2023-04-25T14:31:29;1.23;;;0.80;;
77495;SDS011;66600;48.378;9.948;2023-04-25T14:33:54;1.52;;;1.10;;
77495;SDS011;66600;48.378;9.948;2023-04-25T14:36:20;1.10;;;0.90;;
77495;SDS011;66600;48.378;9.948;2023-04-25T14:38:46;0.80;;;0.80;;
77495;SDS011;66600;48.378;9.948;2023-04-25T14:41:11;1.77;;;1.02;;
77495;SDS011;66600;48.378;9.948;2023-04-25T14:43:37;1.40;;;1.08;;
77495;SDS011;66600;48.378;9.948;2023-04-25T14:46:02;1.10;;;1.00;;
77495;SDS011;66600;48.378;9.948;2023-04-25T14:48:28;2.00;;;1.33;;
77495;SDS011;66600;48.378;9.948;2023-04-25T14:50:54;2.20;;;1.60;;
77495;SDS011;66600;48.378;9.948;2023-04-25T14:53:21;3.08;;;1.80;;
77495;SDS011;66600;48.378;9.948;2023-04-25T14:55:47;2.55;;;1.70;;
77495;SDS011;66600;48.378;9.948;2023-04-25T14:58:13;2.95;;;1.92;;
77495;SDS011;66600;48.378;9.948;2023-04-25T15:00:38;4.70;;;2.45;;
77495;SDS011;66600;48.378;9.948;2023-04-25T15:03:03;2.95;;;1.92;;
77495;SDS011;66600;48.378;9.948;2023-04-25T15:05:29;4.55;;;2.22;;